sensor_id;sensor_type;location;lat;lon;timestamp;pressure;altitude;pressure_sealevel;temperature;humidity
62789;BME280;66401;42.016;21.454;2023-04-09T00:00:36;98445.75;;;10.03;67.42
62789;BME280;66401;42.016;21.454;2023-04-09T00:03:01;98441.13;;;9.84;66.14
62789;BME280;66401;42.016;21.454;2023-04-09T00:05:27;98454.03;;;9.92;69.16
62789;BME280;66401;42.016;21.454;2023-04-09T00:07:53;98447.41;;;10.04;70.45
62789;BME280;66401;42.016;21.454;2023-04-09T00:10:18;98449.13;;;10.19;69.41
62789;BME280;66401;42.016;21.454;2023-04-09T00:12:47;98437.75;;;10.20;69.38
62789;BME280;66401;42.016;21.454;2023-04-09T00:15:12;98447.69;;;10.31;69.04
62789;BME280;66401;42.016;21.454;2023-04-09T00:17:38;98453.88;;;10.30;69.54
62789;BME280;66401;42.016;21.454;2023-04-09T00:20:04;98457.69;;;10.27;68.54
62789;BME280;66401;42.016;21.454;2023-04-09T00:22:30;98455.59;;;10.23;69.24
62789;BME280;66401;42.016;21.454;2023-04-09T00:24:55;98452.38;;;10.21;69.29
62789;BME280;66401;42.016;21.454;2023-04-09T00:27:22;98455.44;;;10.24;68.22
62789;BME280;66401;42.016;21.454;2023-04-09T00:29:47;98458.09;;;10.31;68.21
62789;BME280;66401;42.016;21.454;2023-04-09T00:32:12;98449.06;;;10.27;69.54
62789;BME280;66401;42.016;21.454;2023-04-09T00:34:39;98457.94;;;10.18;69.39
62789;BME280;66401;42.016;21.454;2023-04-09T00:37:05;98459.06;;;10.23;68.69
62789;BME280;66401;42.016;21.454;2023-04-09T00:39:30;98456.94;;;10.34;68.31
62789;BME280;66401;42.016;21.454;2023-04-09T00:41:57;98458.47;;;10.28;68.60
62789;BME280;66401;42.016;21.454;2023-04-09T00:44:23;98448.03;;;9.92;71.10
62789;BME280;66401;42.016;21.454;2023-04-09T00:46:49;98446.34;;;9.84;69.38
62789;BME280;66401;42.016;21.454;2023-04-09T00:49:15;98457.53;;;10.14;68.62
62789;BME280;66401;42.016;21.454;2023-04-09T00:51:41;98443.13;;;10.18;68.46
62789;BME280;66401;42.016;21.454;2023-04-09T00:54:08;98450.94;;;10.33;70.32
62789;BME280;66401;42.016;21.454;2023-04-09T00:56:34;98447.75;;;10.38;69.47
62789;BME280;66401;42.016;21.454;2023-04-09T00:59:01;98452.53;;;10.34;69.86
62789;BME280;66401;42.016;21.454;2023-04-09T01:01:27;98454.00;;;10.22;70.31
62789;BME280;66401;42.016;21.454;2023-04-09T01:03:52;98458.09;;;10.31;70.07
62789;BME280;66401;42.016;21.454;2023-04-09T01:06:33;98458.75;;;10.33;68.92
62789;BME280;66401;42.016;21.454;2023-04-09T01:09:13;98457.75;;;10.34;68.37
62789;BME280;66401;42.016;21.454;2023-04-09T01:11:42;98452.03;;;10.24;69.00
62789;BME280;66401;42.016;21.454;2023-04-09T01:14:23;98450.25;;;10.24;68.31
62789;BME280;66401;42.016;21.454;2023-04-09T01:17:04;98452.38;;;10.21;68.97
62789;BME280;66401;42.016;21.454;2023-04-09T01:22:31;98460.00;;;10.22;71.48
62789;BME280;66401;42.016;21.454;2023-04-09T01:25:06;98464.63;;;10.06;72.54
62789;BME280;66401;42.016;21.454;2023-04-09T01:27:43;98459.94;;;10.16;70.90
62789;BME280;66401;42.016;21.454;2023-04-09T01:30:13;98458.47;;;10.28;69.94
62789;BME280;66401;42.016;21.454;2023-04-09T01:32:40;98458.94;;;10.17;70.03
62789;BME280;66401;42.016;21.454;2023-04-09T01:35:07;98464.84;;;9.89;72.86
62789;BME280;66401;42.016;21.454;2023-04-09T01:37:33;98461.59;;;9.87;72.15
62789;BME280;66401;42.016;21.454;2023-04-09T01:40:00;98445.38;;;9.85;71.00
62789;BME280;66401;42.016;21.454;2023-04-09T01:42:26;98462.13;;;9.97;70.65
62789;BME280;66401;42.016;21.454;2023-04-09T01:44:52;98463.63;;;10.07;69.89
62789;BME280;66401;42.016;21.454;2023-04-09T01:47:18;98468.22;;;10.04;71.12
62789;BME280;66401;42.016;21.454;2023-04-09T01:49:45;98464.16;;;10.02;70.13
62789;BME280;66401;42.016;21.454;2023-04-09T01:52:11;98466.03;;;9.57;74.86
62789;BME280;66401;42.016;21.454;2023-04-09T01:54:36;98477.25;;;9.58;76.21
62789;BME280;66401;42.016;21.454;2023-04-09T01:57:02;98455.91;;;9.48;76.53
62789;BME280;66401;42.016;21.454;2023-04-09T01:59:27;98474.56;;;9.66;74.43
62789;BME280;66401;42.016;21.454;2023-04-09T02:02:19;98474.44;;;9.74;74.65
62789;BME280;66401;42.016;21.454;2023-04-09T02:04:50;98471.22;;;9.72;75.91
62789;BME280;66401;42.016;21.454;2023-04-09T02:07:28;98463.25;;;9.59;77.50
62789;BME280;66401;42.016;21.454;2023-04-09T02:09:59;98468.38;;;9.37;78.58
62789;BME280;66401;42.016;21.454;2023-04-09T02:12:27;98473.25;;;9.03;80.28
62789;BME280;66401;42.016;21.454;2023-04-09T02:14:54;98471.31;;;9.34;77.98
62789;BME280;66401;42.016;21.454;2023-04-09T02:17:20;98438.50;;;9.04;78.14
62789;BME280;66401;42.016;21.454;2023-04-09T02:19:47;98478.56;;;9.09;79.60
62789;BME280;66401;42.016;21.454;2023-04-09T02:22:13;98470.28;;;9.06;79.31
62789;BME280;66401;42.016;21.454;2023-04-09T02:24:39;98483.09;;;8.93;81.26
62789;BME280;66401;42.016;21.454;2023-04-09T02:27:06;98474.66;;;8.91;80.59
62789;BME280;66401;42.016;21.454;2023-04-09T02:29:31;98477.44;;;8.89;80.45
62789;BME280;66401;42.016;21.454;2023-04-09T02:31:57;98475.09;;;8.79;81.81
62789;BME280;66401;42.016;21.454;2023-04-09T02:34:23;98467.25;;;8.65;81.72
62789;BME280;66401;42.016;21.454;2023-04-09T02:36:48;98473.41;;;8.64;82.88
62789;BME280;66401;42.016;21.454;2023-04-09T02:39:14;98471.22;;;8.75;82.15
62789;BME280;66401;42.016;21.454;2023-04-09T02:41:39;98478.25;;;8.89;82.79
62789;BME280;66401;42.016;21.454;2023-04-09T02:44:05;98468.28;;;8.78;82.63
62789;BME280;66401;42.016;21.454;2023-04-09T02:46:30;98475.72;;;8.81;82.71
62789;BME280;66401;42.016;21.454;2023-04-09T02:48:56;98466.94;;;8.82;82.51
62789;BME280;66401;42.016;21.454;2023-04-09T02:51:21;98455.63;;;8.75;82.18
62789;BME280;66401;42.016;21.454;2023-04-09T02:53:47;98464.50;;;9.18;80.32
62789;BME280;66401;42.016;21.454;2023-04-09T02:56:13;98454.63;;;9.14;78.44
62789;BME280;66401;42.016;21.454;2023-04-09T02:58:38;98473.81;;;9.42;77.29
62789;BME280;66401;42.016;21.454;2023-04-09T03:01:04;98463.25;;;9.44;76.06
62789;BME280;66401;42.016;21.454;2023-04-09T03:03:29;98468.81;;;9.56;76.54
62789;BME280;66401;42.016;21.454;2023-04-09T03:05:55;98475.34;;;9.07;80.01
62789;BME280;66401;42.016;21.454;2023-04-09T03:08:21;98466.25;;;9.03;80.41
62789;BME280;66401;42.016;21.454;2023-04-09T03:10:47;98457.16;;;9.22;79.49
62789;BME280;66401;42.016;21.454;2023-04-09T03:13:13;98457.91;;;8.93;80.90
62789;BME280;66401;42.016;21.454;2023-04-09T03:15:38;98450.84;;;8.64;82.72
62789;BME280;66401;42.016;21.454;2023-04-09T03:18:04;98469.91;;;8.25;84.59
62789;BME280;66401;42.016;21.454;2023-04-09T03:20:29;98469.72;;;8.35;84.13
62789;BME280;66401;42.016;21.454;2023-04-09T03:22:55;98456.09;;;8.56;83.63
62789;BME280;66401;42.016;21.454;2023-04-09T03:25:20;98458.84;;;8.77;82.66
62789;BME280;66401;42.016;21.454;2023-04-09T03:27:46;98463.22;;;9.00;80.76
62789;BME280;66401;42.016;21.454;2023-04-09T03:30:11;98462.34;;;9.22;80.32
62789;BME280;66401;42.016;21.454;2023-04-09T03:32:37;98465.94;;;9.21;78.98
62789;BME280;66401;42.016;21.454;2023-04-09T03:35:03;98471.31;;;9.34;79.00
62789;BME280;66401;42.016;21.454;2023-04-09T03:37:28;98466.28;;;9.33;79.12
62789;BME280;66401;42.016;21.454;2023-04-09T03:39:54;98461.56;;;9.36;77.98
62789;BME280;66401;42.016;21.454;2023-04-09T03:42:19;98469.19;;;9.38;78.90
62789;BME280;66401;42.016;21.454;2023-04-09T03:44:45;98468.09;;;9.32;79.85
62789;BME280;66401;42.016;21.454;2023-04-09T03:47:10;98459.94;;;8.83;81.30
62789;BME280;66401;42.016;21.454;2023-04-09T03:49:36;98466.19;;;9.26;79.23
62789;BME280;66401;42.016;21.454;2023-04-09T03:52:02;98466.91;;;9.35;79.27
62789;BME280;66401;42.016;21.454;2023-04-09T03:54:30;98467.00;;;9.41;78.96
62789;BME280;66401;42.016;21.454;2023-04-09T03:56:56;98468.91;;;9.48;78.74
62789;BME280;66401;42.016;21.454;2023-04-09T03:59:22;98484.13;;;9.36;79.42
62789;BME280;66401;42.016;21.454;2023-04-09T04:01:48;98480.09;;;9.18;80.17
62789;BME280;66401;42.016;21.454;2023-04-09T04:04:13;98478.09;;;9.06;80.93
62789;BME280;66401;42.016;21.454;2023-04-09T04:06:39;98495.34;;;8.61;83.03
62789;BME280;66401;42.016;21.454;2023-04-09T04:09:04;98494.34;;;8.08;85.81
62789;BME280;66401;42.016;21.454;2023-04-09T04:11:30;98491.84;;;7.92;86.81
62789;BME280;66401;42.016;21.454;2023-04-09T04:13:55;98487.44;;;8.23;86.16
62789;BME280;66401;42.016;21.454;2023-04-09T04:16:21;98470.97;;;8.39;84.53
62789;BME280;66401;42.016;21.454;2023-04-09T04:18:46;98487.34;;;8.85;82.49
62789;BME280;66401;42.016;21.454;2023-04-09T04:21:13;98481.59;;;8.98;82.41
62789;BME280;66401;42.016;21.454;2023-04-09T04:23:39;98487.41;;;9.15;81.59
62789;BME280;66401;42.016;21.454;2023-04-09T04:26:09;98491.00;;;9.14;81.03
62789;BME280;66401;42.016;21.454;2023-04-09T04:28:38;98489.13;;;9.23;80.79
62789;BME280;66401;42.016;21.454;2023-04-09T04:31:11;98492.22;;;8.43;84.83
62789;BME280;66401;42.016;21.454;2023-04-09T04:33:37;98485.97;;;8.75;83.60
62789;BME280;66401;42.016;21.454;2023-04-09T04:38:30;98472.97;;;8.60;82.08
62789;BME280;66401;42.016;21.454;2023-04-09T04:40:56;98481.91;;;8.26;84.02
62789;BME280;66401;42.016;21.454;2023-04-09T04:43:21;98489.69;;;8.26;84.91
62789;BME280;66401;42.016;21.454;2023-04-09T04:45:47;98489.63;;;8.43;84.81
62789;BME280;66401;42.016;21.454;2023-04-09T04:48:12;98487.72;;;8.37;84.18
62789;BME280;66401;42.016;21.454;2023-04-09T04:50:38;98497.25;;;8.13;85.95
62789;BME280;66401;42.016;21.454;2023-04-09T04:53:03;98491.41;;;8.42;84.35
62789;BME280;66401;42.016;21.454;2023-04-09T04:55:29;98487.00;;;7.81;87.28
62789;BME280;66401;42.016;21.454;2023-04-09T04:57:54;98489.50;;;8.05;87.04
62789;BME280;66401;42.016;21.454;2023-04-09T05:00:20;98482.94;;;8.48;84.48
62789;BME280;66401;42.016;21.454;2023-04-09T05:02:45;98489.44;;;8.67;84.30
62789;BME280;66401;42.016;21.454;2023-04-09T05:05:11;98489.72;;;8.18;86.25
62789;BME280;66401;42.016;21.454;2023-04-09T05:07:36;98493.72;;;7.98;87.15
62789;BME280;66401;42.016;21.454;2023-04-09T05:10:02;98492.59;;;8.40;85.18
62789;BME280;66401;42.016;21.454;2023-04-09T05:12:30;98492.59;;;8.40;85.58
62789;BME280;66401;42.016;21.454;2023-04-09T05:14:56;98491.31;;;7.57;88.65
62789;BME280;66401;42.016;21.454;2023-04-09T05:17:21;98492.47;;;7.46;89.56
62789;BME280;66401;42.016;21.454;2023-04-09T05:19:52;98497.72;;;7.78;87.78
62789;BME280;66401;42.016;21.454;2023-04-09T05:22:18;98506.84;;;7.65;89.06
62789;BME280;66401;42.016;21.454;2023-04-09T05:24:44;98496.50;;;7.57;88.59
62789;BME280;66401;42.016;21.454;2023-04-09T05:27:09;98492.84;;;7.27;90.55
62789;BME280;66401;42.016;21.454;2023-04-09T05:29:34;98510.31;;;7.33;90.30
62789;BME280;66401;42.016;21.454;2023-04-09T05:32:00;98505.13;;;7.33;91.04
62789;BME280;66401;42.016;21.454;2023-04-09T05:34:26;98499.13;;;7.33;91.37
62789;BME280;66401;42.016;21.454;2023-04-09T05:36:52;98502.19;;;7.44;90.84
62789;BME280;66401;42.016;21.454;2023-04-09T05:39:17;98471.31;;;7.27;90.09
62789;BME280;66401;42.016;21.454;2023-04-09T05:41:43;98508.19;;;7.45;90.98
62789;BME280;66401;42.016;21.454;2023-04-09T05:44:10;98511.97;;;7.18;91.34
62789;BME280;66401;42.016;21.454;2023-04-09T05:46:35;98509.31;;;7.42;91.29
62789;BME280;66401;42.016;21.454;2023-04-09T05:49:01;98509.22;;;7.03;92.39
62789;BME280;66401;42.016;21.454;2023-04-09T05:51:26;98507.59;;;6.94;92.57
62789;BME280;66401;42.016;21.454;2023-04-09T05:53:52;98517.31;;;7.00;93.61
62789;BME280;66401;42.016;21.454;2023-04-09T05:56:18;98517.94;;;7.02;93.19
62789;BME280;66401;42.016;21.454;2023-04-09T05:58:43;98513.09;;;7.07;92.56
62789;BME280;66401;42.016;21.454;2023-04-09T06:01:09;98508.22;;;7.21;91.94
62789;BME280;66401;42.016;21.454;2023-04-09T06:03:35;98522.19;;;6.87;93.37
62789;BME280;66401;42.016;21.454;2023-04-09T06:06:00;98506.63;;;6.79;93.84
62789;BME280;66401;42.016;21.454;2023-04-09T06:08:26;98515.69;;;6.91;93.70
62789;BME280;66401;42.016;21.454;2023-04-09T06:10:51;98525.56;;;6.87;94.34
62789;BME280;66401;42.016;21.454;2023-04-09T06:13:17;98535.44;;;7.00;94.60
62789;BME280;66401;42.016;21.454;2023-04-09T06:15:42;98531.53;;;7.12;94.55
62789;BME280;66401;42.016;21.454;2023-04-09T06:18:08;98533.16;;;7.22;93.39
62789;BME280;66401;42.016;21.454;2023-04-09T06:20:33;98539.81;;;7.24;93.18
62789;BME280;66401;42.016;21.454;2023-04-09T06:22:59;98541.34;;;7.66;91.34
62789;BME280;66401;42.016;21.454;2023-04-09T06:25:25;98538.66;;;7.90;88.61
62789;BME280;66401;42.016;21.454;2023-04-09T06:27:51;98553.03;;;8.09;87.54
62789;BME280;66401;42.016;21.454;2023-04-09T06:30:16;98540.38;;;8.14;85.88
62789;BME280;66401;42.016;21.454;2023-04-09T06:32:41;98546.50;;;8.21;85.96
62789;BME280;66401;42.016;21.454;2023-04-09T06:35:09;98556.97;;;8.36;85.10
62789;BME280;66401;42.016;21.454;2023-04-09T06:37:35;98555.97;;;8.06;86.71
62789;BME280;66401;42.016;21.454;2023-04-09T06:40:01;98555.88;;;8.30;85.22
62789;BME280;66401;42.016;21.454;2023-04-09T06:42:27;98564.28;;;8.32;84.49
62789;BME280;66401;42.016;21.454;2023-04-09T06:44:53;98561.69;;;8.32;84.30
62789;BME280;66401;42.016;21.454;2023-04-09T06:47:18;98562.75;;;8.07;86.68
62789;BME280;66401;42.016;21.454;2023-04-09T06:49:43;98565.00;;;8.10;85.90
62789;BME280;66401;42.016;21.454;2023-04-09T06:52:09;98561.94;;;8.15;85.80
62789;BME280;66401;42.016;21.454;2023-04-09T06:54:35;98572.94;;;8.17;85.79
62789;BME280;66401;42.016;21.454;2023-04-09T06:57:00;98571.31;;;7.68;88.02
62789;BME280;66401;42.016;21.454;2023-04-09T06:59:25;98554.47;;;7.72;88.29
62789;BME280;66401;42.016;21.454;2023-04-09T07:01:51;98575.28;;;7.95;88.34
62789;BME280;66401;42.016;21.454;2023-04-09T07:04:17;98577.06;;;7.95;88.07
62789;BME280;66401;42.016;21.454;2023-04-09T07:06:42;98573.88;;;7.77;88.34
62789;BME280;66401;42.016;21.454;2023-04-09T07:09:08;98578.34;;;7.99;86.57
62789;BME280;66401;42.016;21.454;2023-04-09T07:11:33;98581.59;;;8.01;85.80
62789;BME280;66401;42.016;21.454;2023-04-09T07:13:59;98585.63;;;8.12;85.31
62789;BME280;66401;42.016;21.454;2023-04-09T07:16:24;98589.31;;;8.17;85.67
62789;BME280;66401;42.016;21.454;2023-04-09T07:18:50;98587.63;;;8.41;81.67
62789;BME280;66401;42.016;21.454;2023-04-09T07:21:15;98589.22;;;8.50;81.48
62789;BME280;66401;42.016;21.454;2023-04-09T07:23:41;98595.63;;;8.62;81.00
62789;BME280;66401;42.016;21.454;2023-04-09T07:26:06;98599.22;;;8.61;81.16
62789;BME280;66401;42.016;21.454;2023-04-09T07:28:32;98579.69;;;8.65;80.58
62789;BME280;66401;42.016;21.454;2023-04-09T07:30:59;98593.22;;;8.60;81.29
62789;BME280;66401;42.016;21.454;2023-04-09T07:33:26;98585.91;;;8.56;79.43
62789;BME280;66401;42.016;21.454;2023-04-09T07:35:52;98579.03;;;8.32;81.16
62789;BME280;66401;42.016;21.454;2023-04-09T07:38:17;98590.28;;;8.16;80.00
62789;BME280;66401;42.016;21.454;2023-04-09T07:40:43;98590.22;;;8.32;79.19
62789;BME280;66401;42.016;21.454;2023-04-09T07:43:09;98582.53;;;8.08;79.95
62789;BME280;66401;42.016;21.454;2023-04-09T07:45:34;98588.31;;;8.35;78.38
62789;BME280;66401;42.016;21.454;2023-04-09T07:48:00;98577.25;;;8.41;78.17
62789;BME280;66401;42.016;21.454;2023-04-09T07:50:25;98588.19;;;8.59;78.38
62789;BME280;66401;42.016;21.454;2023-04-09T07:52:51;98583.09;;;8.26;80.67
62789;BME280;66401;42.016;21.454;2023-04-09T07:55:17;98584.97;;;8.49;80.32
62789;BME280;66401;42.016;21.454;2023-04-09T07:57:43;98580.47;;;8.43;81.03
62789;BME280;66401;42.016;21.454;2023-04-09T08:00:10;98585.47;;;8.75;80.09
62789;BME280;66401;42.016;21.454;2023-04-09T08:02:36;98585.72;;;8.88;80.13
62789;BME280;66401;42.016;21.454;2023-04-09T08:05:02;98586.06;;;8.85;80.34
62789;BME280;66401;42.016;21.454;2023-04-09T08:07:27;98589.78;;;8.91;79.65
62789;BME280;66401;42.016;21.454;2023-04-09T08:09:53;98584.03;;;8.96;76.26
62789;BME280;66401;42.016;21.454;2023-04-09T08:12:18;98583.53;;;9.00;76.48
62789;BME280;66401;42.016;21.454;2023-04-09T08:14:44;98581.50;;;9.10;77.21
62789;BME280;66401;42.016;21.454;2023-04-09T08:17:09;98594.44;;;8.96;77.63
62789;BME280;66401;42.016;21.454;2023-04-09T08:19:35;98602.53;;;9.01;77.19
62789;BME280;66401;42.016;21.454;2023-04-09T08:22:01;98601.19;;;9.05;77.43
62789;BME280;66401;42.016;21.454;2023-04-09T08:24:26;98602.56;;;8.93;77.24
62789;BME280;66401;42.016;21.454;2023-04-09T08:26:52;98600.97;;;8.92;76.82
62789;BME280;66401;42.016;21.454;2023-04-09T08:29:18;98594.25;;;8.74;77.42
62789;BME280;66401;42.016;21.454;2023-04-09T08:31:44;98605.13;;;9.01;77.71
62789;BME280;66401;42.016;21.454;2023-04-09T08:34:09;98590.00;;;9.04;76.85
62789;BME280;66401;42.016;21.454;2023-04-09T08:36:35;98606.38;;;9.05;77.22
62789;BME280;66401;42.016;21.454;2023-04-09T08:39:01;98602.56;;;8.93;76.98
62789;BME280;66401;42.016;21.454;2023-04-09T08:41:28;98589.91;;;8.36;77.46
62789;BME280;66401;42.016;21.454;2023-04-09T08:43:54;98608.41;;;8.41;77.93
62789;BME280;66401;42.016;21.454;2023-04-09T08:46:20;98610.38;;;8.22;79.90
62789;BME280;66401;42.016;21.454;2023-04-09T08:48:48;98598.09;;;8.08;80.29
62789;BME280;66401;42.016;21.454;2023-04-09T08:51:23;98604.13;;;8.48;77.43
62789;BME280;66401;42.016;21.454;2023-04-09T08:53:55;98604.56;;;8.20;77.99
62789;BME280;66401;42.016;21.454;2023-04-09T08:56:21;98596.34;;;8.48;77.43
62789;BME280;66401;42.016;21.454;2023-04-09T08:58:47;98604.78;;;8.50;78.06
62789;BME280;66401;42.016;21.454;2023-04-09T09:01:25;98605.22;;;8.62;76.50
62789;BME280;66401;42.016;21.454;2023-04-09T09:11:45;98581.13;;;8.99;71.52
62789;BME280;66401;42.016;21.454;2023-04-09T09:14:17;98595.91;;;8.98;72.36
62789;BME280;66401;42.016;21.454;2023-04-09T09:17:01;98592.28;;;9.22;72.48
62789;BME280;66401;42.016;21.454;2023-04-09T09:19:32;98595.50;;;9.47;71.57
62789;BME280;66401;42.016;21.454;2023-04-09T09:22:05;98591.19;;;9.39;71.92
62789;BME280;66401;42.016;21.454;2023-04-09T09:24:32;98598.72;;;9.49;69.82
62789;BME280;66401;42.016;21.454;2023-04-09T09:27:01;98588.84;;;9.44;68.36
62789;BME280;66401;42.016;21.454;2023-04-09T09:29:27;98587.22;;;9.43;70.32
62789;BME280;66401;42.016;21.454;2023-04-09T09:31:54;98575.16;;;9.51;68.70
62789;BME280;66401;42.016;21.454;2023-04-09T09:34:21;98590.94;;;9.49;71.51
62789;BME280;66401;42.016;21.454;2023-04-09T09:36:46;98579.66;;;9.57;69.89
62789;BME280;66401;42.016;21.454;2023-04-09T09:39:13;98593.28;;;9.59;69.28
62789;BME280;66401;42.016;21.454;2023-04-09T09:41:39;98588.16;;;9.51;68.52
62789;BME280;66401;42.016;21.454;2023-04-09T09:44:09;98587.41;;;9.42;69.65
62789;BME280;66401;42.016;21.454;2023-04-09T09:46:37;98586.72;;;9.10;71.96
62789;BME280;66401;42.016;21.454;2023-04-09T09:49:04;98580.06;;;9.08;71.82
62789;BME280;66401;42.016;21.454;2023-04-09T09:51:30;98585.16;;;9.39;69.58
62789;BME280;66401;42.016;21.454;2023-04-09T09:53:57;98585.28;;;9.08;69.53
62789;BME280;66401;42.016;21.454;2023-04-09T09:56:44;98580.19;;;8.92;71.09
62789;BME280;66401;42.016;21.454;2023-04-09T09:59:20;98583.16;;;9.26;70.18
62789;BME280;66401;42.016;21.454;2023-04-09T10:01:47;98579.09;;;9.09;70.80
62789;BME280;66401;42.016;21.454;2023-04-09T10:04:18;98584.31;;;9.24;71.99
62789;BME280;66401;42.016;21.454;2023-04-09T10:06:46;98580.41;;;9.28;71.71
62789;BME280;66401;42.016;21.454;2023-04-09T10:09:12;98572.25;;;9.45;69.48
62789;BME280;66401;42.016;21.454;2023-04-09T10:11:38;98569.59;;;9.16;69.70
62789;BME280;66401;42.016;21.454;2023-04-09T10:14:08;98564.25;;;9.17;71.51
62789;BME280;66401;42.016;21.454;2023-04-09T10:16:34;98573.38;;;8.91;72.13
62789;BME280;66401;42.016;21.454;2023-04-09T10:19:00;98565.78;;;9.27;69.68
62789;BME280;66401;42.016;21.454;2023-04-09T10:24:10;98552.72;;;9.50;68.47
62789;BME280;66401;42.016;21.454;2023-04-09T10:26:39;98566.13;;;9.76;67.40
62789;BME280;66401;42.016;21.454;2023-04-09T10:29:09;98554.91;;;9.08;70.67
62789;BME280;66401;42.016;21.454;2023-04-09T10:31:52;98563.31;;;9.63;67.28
62789;BME280;66401;42.016;21.454;2023-04-09T10:34:20;98562.44;;;9.85;68.13
62789;BME280;66401;42.016;21.454;2023-04-09T10:36:51;98553.97;;;9.54;68.85
62789;BME280;66401;42.016;21.454;2023-04-09T10:39:17;98559.72;;;9.64;68.26
62789;BME280;66401;42.016;21.454;2023-04-09T10:41:43;98554.09;;;9.90;67.71
62789;BME280;66401;42.016;21.454;2023-04-09T10:44:24;98555.44;;;10.00;66.49
62789;BME280;66401;42.016;21.454;2023-04-09T10:46:54;98549.84;;;10.03;66.44
62789;BME280;66401;42.016;21.454;2023-04-09T10:49:23;98552.72;;;10.09;66.24
62789;BME280;66401;42.016;21.454;2023-04-09T10:51:51;98537.75;;;9.37;68.95
62789;BME280;66401;42.016;21.454;2023-04-09T10:57:16;98536.59;;;9.98;66.58
62789;BME280;66401;42.016;21.454;2023-04-09T10:59:47;98540.00;;;10.14;66.95
62789;BME280;66401;42.016;21.454;2023-04-09T11:02:30;98533.91;;;10.07;67.95
62789;BME280;66401;42.016;21.454;2023-04-09T11:05:38;98531.13;;;9.79;66.29
62789;BME280;66401;42.016;21.454;2023-04-09T11:08:04;98530.22;;;10.16;67.68
62789;BME280;66401;42.016;21.454;2023-04-09T11:10:31;98533.97;;;10.13;66.87
62789;BME280;66401;42.016;21.454;2023-04-09T11:12:57;98521.50;;;10.09;66.20
62789;BME280;66401;42.016;21.454;2023-04-09T11:15:23;98525.84;;;9.87;67.19
62789;BME280;66401;42.016;21.454;2023-04-09T11:17:49;98521.63;;;9.56;68.93
62789;BME280;66401;42.016;21.454;2023-04-09T11:20:16;98522.88;;;9.90;68.44
62789;BME280;66401;42.016;21.454;2023-04-09T11:22:43;98514.34;;;9.81;69.13
62789;BME280;66401;42.016;21.454;2023-04-09T11:25:09;98504.94;;;9.51;68.88
62789;BME280;66401;42.016;21.454;2023-04-09T11:27:38;98508.78;;;9.84;67.08
62789;BME280;66401;42.016;21.454;2023-04-09T11:30:04;98511.69;;;9.60;68.12
62789;BME280;66401;42.016;21.454;2023-04-09T11:32:30;98507.69;;;9.93;67.97
62789;BME280;66401;42.016;21.454;2023-04-09T11:34:56;98517.88;;;10.39;66.40
62789;BME280;66401;42.016;21.454;2023-04-09T11:37:22;98501.91;;;10.42;64.51
62789;BME280;66401;42.016;21.454;2023-04-09T11:39:48;98502.72;;;10.28;65.02
62789;BME280;66401;42.016;21.454;2023-04-09T11:42:18;98494.09;;;10.42;65.61
62789;BME280;66401;42.016;21.454;2023-04-09T11:44:44;98503.44;;;10.37;66.39
62789;BME280;66401;42.016;21.454;2023-04-09T11:47:12;98500.41;;;10.54;64.86
62789;BME280;66401;42.016;21.454;2023-04-09T11:49:37;98469.47;;;10.45;65.41
62789;BME280;66401;42.016;21.454;2023-04-09T11:52:03;98499.31;;;10.64;64.27
62789;BME280;66401;42.016;21.454;2023-04-09T11:54:32;98499.53;;;10.69;64.90
62789;BME280;66401;42.016;21.454;2023-04-09T11:56:59;98498.00;;;10.53;66.33
62789;BME280;66401;42.016;21.454;2023-04-09T11:59:25;98494.81;;;10.57;65.91
62789;BME280;66401;42.016;21.454;2023-04-09T12:01:51;98496.19;;;10.75;64.60
62789;BME280;66401;42.016;21.454;2023-04-09T12:04:20;98501.28;;;10.62;64.46
62789;BME280;66401;42.016;21.454;2023-04-09T12:06:46;98485.81;;;10.39;65.63
62789;BME280;66401;42.016;21.454;2023-04-09T12:09:12;98492.69;;;10.25;66.50
62789;BME280;66401;42.016;21.454;2023-04-09T12:11:41;98486.38;;;10.34;66.09
62789;BME280;66401;42.016;21.454;2023-04-09T12:14:11;98488.88;;;10.42;65.79
62789;BME280;66401;42.016;21.454;2023-04-09T12:16:37;98477.25;;;10.09;66.65
62789;BME280;66401;42.016;21.454;2023-04-09T12:19:06;98477.75;;;9.97;67.75
62789;BME280;66401;42.016;21.454;2023-04-09T12:21:45;98487.41;;;10.03;69.55
62789;BME280;66401;42.016;21.454;2023-04-09T12:24:15;98478.38;;;10.36;70.33
62789;BME280;66401;42.016;21.454;2023-04-09T12:26:41;98478.63;;;10.04;70.60
62789;BME280;66401;42.016;21.454;2023-04-09T12:29:07;98477.31;;;10.30;68.39
62789;BME280;66401;42.016;21.454;2023-04-09T12:31:33;98479.56;;;10.54;69.58
62789;BME280;66401;42.016;21.454;2023-04-09T12:33:58;98472.63;;;10.04;70.73
62789;BME280;66401;42.016;21.454;2023-04-09T12:36:23;98477.97;;;10.53;69.24
62789;BME280;66401;42.016;21.454;2023-04-09T12:38:50;98465.06;;;10.67;68.60
62789;BME280;66401;42.016;21.454;2023-04-09T12:41:16;98461.44;;;10.89;67.99
62789;BME280;66401;42.016;21.454;2023-04-09T12:43:41;98457.13;;;11.03;66.25
62789;BME280;66401;42.016;21.454;2023-04-09T12:46:11;98462.81;;;11.13;64.90
62789;BME280;66401;42.016;21.454;2023-04-09T12:48:37;98453.94;;;11.07;65.07
62789;BME280;66401;42.016;21.454;2023-04-09T12:51:02;98451.91;;;11.03;67.74
62789;BME280;66401;42.016;21.454;2023-04-09T12:53:28;98453.59;;;11.17;64.08
62789;BME280;66401;42.016;21.454;2023-04-09T12:55:53;98464.56;;;11.34;63.81
62789;BME280;66401;42.016;21.454;2023-04-09T12:58:19;98450.56;;;11.41;62.41
62789;BME280;66401;42.016;21.454;2023-04-09T13:00:44;98445.66;;;10.97;64.02
62789;BME280;66401;42.016;21.454;2023-04-09T13:03:10;98449.59;;;11.49;64.35
62789;BME280;66401;42.016;21.454;2023-04-09T13:05:36;98450.25;;;11.64;61.10
62789;BME280;66401;42.016;21.454;2023-04-09T13:08:01;98449.56;;;11.84;61.58
62789;BME280;66401;42.016;21.454;2023-04-09T13:10:29;98443.19;;;11.93;61.36
62789;BME280;66401;42.016;21.454;2023-04-09T13:12:55;98447.63;;;11.99;62.67
62789;BME280;66401;42.016;21.454;2023-04-09T13:15:20;98446.38;;;11.82;60.61